New Mountain, Texas
Current Conditions -  °F | °C
As of 8:15 PM on Friday 19 Dec 2014 (Local Time) from KOSA Reporting Station
Overcast Overcast  
Wind Chill: 46°   Ceiling: 1100
Heat Index: 46°   Visibility: 5mi
Dew Point: 45°   Wind: 3mph
Humidity: 95%   Direction: 20°NNE
Pressure: 30.21"   Gusts: NA
Location:  32.7353°N, 94.9492°W
Report Text: KOSA 200215Z AUTO 02003KT 5SM SCT007 BKN011 OVC041 08/07 A3021 RMK AO1 T00770070
Loading
Personal Weather Stations






























Interactive Weather Map New forecast layout! Learn more

10-Day Weather Forecast

Advertisements
Track Severe Weather on mobile